Terminal Aerodrome Forecast
Issued by NWS

Current Version | Previous Version | Graphics & Text | Print | Product List | Glossary On
Versions: 1 2 3 4 5 6 7 8 9 10 11 12 13 14
000
FTUS41 KILN 222334
TAFLUK
TAF
KLUK 222334Z 2300/2324 15003KT P6SM FEW060
     FM230100 VRB03KT P6SM SKC
     FM230500 00000KT 3SM BR SKC
      TEMPO 2308/2312 1SM BR BKN003
     FM231400 15004KT P6SM FEW040 SCT250=

USA.gov is the U.S. government's official web portal to all federal, state and local government web resources and services.